KLOR/LOR METAR and TAF weather

Enter ICAO airport designator
Station Type Date Time Source
KLOR METAR 2019/05/26 00:58 UTC NOAA

KLOR 260058Z AUTO 34003KT 10SM CLR 29/19 A3009 RMK AO2 SLP170 T02880194


Station Type Date Time Source
KLOR Decoded METAR 2019/05/26 00:58 UTC NOAA

Fort Rucker, Lowe Army Heliport, AL, United States (KLOR) 31-21-32N 085-44-54W 93M
May 25, 2019 - 08:58 PM EDT / 2019.05.26 0058 UTC
Wind: from the NNW (340 degrees) at 3 MPH (3 KT):0
Visibility: 10 mile(s):0
Sky conditions: clear
Temperature: 83.8 F (28.8 C)
Dew Point: 66.9 F (19.4 C)
Relative Humidity: 56%
Pressure (altimeter): 30.09 in. Hg (1018 hPa)
ob: KLOR 260058Z AUTO 34003KT 10SM CLR 29/19 A3009 RMK AO2 SLP170 T02880194
cycle: 1

Station Type Date Time Source
KLOR TAF UTC NOAA

Error!

Example: see airport list